Toledo, Iowa
Current Conditions -  °F | °C
As of 12:53 AM on Sunday 23 Nov 2014 (Local Time) from KMIW Reporting Station
Overcast Overcast  
Wind Chill: 12°   Ceiling: 1400
Heat Index: 12°   Visibility: 10mi
Dew Point:   Wind: 15mph
Humidity: 86%   Direction: 200°SSW
Pressure: 29.61"   Gusts: NA
Location:  42°N, 92.58°W
Report Text: KMIW 230653Z AUTO 20013KT 10SM OVC014 12/09 A2961 RMK AO2 SLP027 T01170094
Loading
Personal Weather Stations






























Interactive Weather Map New forecast layout! Learn more

10-Day Weather Forecast

Advertisements
Track Severe Weather on mobile